createdAt,value
2022-11-06T00:00:33.673Z,9.35
2022-11-06T00:03:36.202Z,10.13
2022-11-06T00:06:50.785Z,10.98
2022-11-06T00:09:52.819Z,9.30
2022-11-06T00:12:54.846Z,8.65
2022-11-06T00:15:56.931Z,6.47
2022-11-06T00:19:02.523Z,7.70
2022-11-06T00:22:04.801Z,11.18
2022-11-06T00:25:07.989Z,11.00
2022-11-06T00:28:10.379Z,10.18
2022-11-06T00:31:15.106Z,8.77
2022-11-06T00:34:17.134Z,8.80
2022-11-06T00:37:19.340Z,7.65
2022-11-06T00:40:21.367Z,8.13
2022-11-06T00:43:23.452Z,6.10
2022-11-06T00:46:26.001Z,10.48
2022-11-06T00:49:28.748Z,8.85
2022-11-06T00:52:30.941Z,9.23
2022-11-06T00:55:32.993Z,11.38
2022-11-06T00:58:35.207Z,13.30
2022-11-06T01:01:40.962Z,11.95
2022-11-06T01:04:43.179Z,10.35
2022-11-06T01:07:45.591Z,9.75
2022-11-06T01:10:47.670Z,12.85
2022-11-06T01:13:51.558Z,10.23
2022-11-06T01:16:53.812Z,10.38
2022-11-06T01:19:55.825Z,8.10
2022-11-06T01:22:57.860Z,9.88
2022-11-06T01:26:04.983Z,14.07
2022-11-06T01:29:09.059Z,12.93
2022-11-06T01:32:11.114Z,13.82
2022-11-06T01:35:13.172Z,12.77
2022-11-06T01:38:15.410Z,11.15
2022-11-06T01:41:26.568Z,12.07
2022-11-06T01:44:43.844Z,11.45
2022-11-06T01:47:46.316Z,10.77
2022-11-06T01:50:55.929Z,10.13
2022-11-06T01:53:57.953Z,13.13
2022-11-06T01:57:00.336Z,9.55
2022-11-06T02:00:02.491Z,10.63
2022-11-06T02:03:07.162Z,11.70
2022-11-06T02:06:09.288Z,10.32
2022-11-06T02:09:12.473Z,13.68
2022-11-06T02:12:38.366Z,9.32
2022-11-06T02:15:46.112Z,8.80
2022-11-06T02:22:09.564Z,13.02
2022-11-06T02:25:26.260Z,16.15
2022-11-06T02:28:39.288Z,10.23
2022-11-06T02:31:42.018Z,11.98
2022-11-06T02:34:44.185Z,10.98
2022-11-06T02:37:47.010Z,10.70
2022-11-06T02:40:56.190Z,10.50
2022-11-06T02:43:58.424Z,11.15
2022-11-06T02:47:08.385Z,13.65
2022-11-06T02:50:23.125Z,12.70
2022-11-06T02:53:26.108Z,10.70
2022-11-06T02:56:32.164Z,9.07
2022-11-06T02:59:52.336Z,8.70
2022-11-06T03:03:01.578Z,12.00
2022-11-06T03:06:13.742Z,13.52
2022-11-06T03:09:20.606Z,9.82
2022-11-06T03:12:29.635Z,9.93
2022-11-06T03:15:56.811Z,9.50
2022-11-06T03:19:42.761Z,9.73
2022-11-06T03:22:58.786Z,12.98
2022-11-06T03:26:34.088Z,9.68
2022-11-06T03:29:48.776Z,13.57
2022-11-06T03:33:13.607Z,10.27
2022-11-06T03:36:26.839Z,9.30
2022-11-06T03:39:33.170Z,11.48
2022-11-06T03:42:35.214Z,11.15
2022-11-06T03:45:37.303Z,15.57
2022-11-06T03:48:52.587Z,10.73
2022-11-06T03:52:02.988Z,14.10
2022-11-06T03:55:14.975Z,12.88
2022-11-06T03:58:20.827Z,13.68
2022-11-06T04:01:27.746Z,13.25
2022-11-06T04:04:35.578Z,11.33
2022-11-06T04:11:04.111Z,31.23
2022-11-06T04:14:06.375Z,52.10
2022-11-06T04:17:11.495Z,146.75
2022-11-06T04:20:38.394Z,83.82
2022-11-06T04:24:17.041Z,105.53
2022-11-06T04:27:36.924Z,118.18
2022-11-06T04:31:23.429Z,79.13
2022-11-06T04:34:46.804Z,74.13
2022-11-06T04:38:10.010Z,55.33
2022-11-06T04:41:55.160Z,72.18
2022-11-06T04:45:09.758Z,69.35
2022-11-06T04:48:12.075Z,61.65
2022-11-06T04:51:14.397Z,70.00
2022-11-06T04:54:16.517Z,88.78
2022-11-06T04:57:18.555Z,62.10
2022-11-06T05:00:20.599Z,102.93
2022-11-06T05:03:22.647Z,125.60
2022-11-06T05:06:29.612Z,143.68
2022-11-06T05:09:32.435Z,49.65
2022-11-06T05:12:34.880Z,112.55
2022-11-06T05:15:36.912Z,105.88
2022-11-06T05:18:38.963Z,89.65
2022-11-06T05:21:59.791Z,83.20
2022-11-06T05:25:01.852Z,110.95
2022-11-06T05:28:08.054Z,97.97
2022-11-06T05:31:10.124Z,72.90
2022-11-06T05:34:12.252Z,125.05
2022-11-06T05:37:14.297Z,55.88
2022-11-06T05:40:16.477Z,76.25
2022-11-06T05:43:18.515Z,105.05
2022-11-06T05:46:42.836Z,43.50
2022-11-06T05:49:42.573Z,112.70
2022-11-06T05:52:44.655Z,81.10
2022-11-06T05:55:47.303Z,119.88
2022-11-06T05:58:49.321Z,91.07
2022-11-06T06:01:51.510Z,56.95
2022-11-06T06:04:53.625Z,154.88
2022-11-06T06:07:55.711Z,87.00
2022-11-06T06:10:57.724Z,37.75
2022-11-06T06:14:00.805Z,52.95
2022-11-06T06:17:02.870Z,74.75
2022-11-06T06:20:05.998Z,119.28
2022-11-06T06:23:09.615Z,146.55
2022-11-06T06:26:11.851Z,111.60
2022-11-06T06:29:14.030Z,45.20
2022-11-06T06:32:16.121Z,53.00
2022-11-06T06:35:18.846Z,43.97
2022-11-06T06:38:20.944Z,48.15
2022-11-06T06:41:22.972Z,52.47
2022-11-06T06:44:24.998Z,61.28
2022-11-06T06:47:27.288Z,27.75
2022-11-06T06:50:29.362Z,43.45
2022-11-06T06:53:36.650Z,62.63
2022-11-06T06:56:38.669Z,39.55
2022-11-06T06:59:40.686Z,40.88
2022-11-06T07:02:42.721Z,39.85
2022-11-06T07:05:44.810Z,48.63
2022-11-06T07:08:47.009Z,66.63
2022-11-06T07:11:49.163Z,73.57
2022-11-06T07:14:51.231Z,54.97
2022-11-06T07:17:53.379Z,54.30
2022-11-06T07:20:55.454Z,45.13
2022-11-06T07:23:57.561Z,43.38
2022-11-06T07:26:59.592Z,32.63
2022-11-06T07:30:01.782Z,37.40
2022-11-06T07:33:04.641Z,28.17
2022-11-06T07:36:09.546Z,55.83
2022-11-06T07:39:11.950Z,28.25
2022-11-06T07:42:14.012Z,19.83
2022-11-06T07:45:30.589Z,19.95
2022-11-06T07:48:33.043Z,20.48
2022-11-06T07:51:35.168Z,21.50
2022-11-06T07:54:37.293Z,19.48
2022-11-06T07:57:39.340Z,23.13
2022-11-06T08:00:41.415Z,22.70
2022-11-06T08:03:43.985Z,23.40
2022-11-06T08:06:46.125Z,32.70
2022-11-06T08:09:48.137Z,28.63
2022-11-06T08:12:50.176Z,40.30
2022-11-06T08:15:52.204Z,56.78
2022-11-06T08:18:54.298Z,26.85
2022-11-06T08:21:57.081Z,23.45
2022-11-06T08:24:59.183Z,25.63
2022-11-06T08:28:02.035Z,26.45
2022-11-06T08:31:07.520Z,23.92
2022-11-06T08:34:09.707Z,50.50
2022-11-06T08:37:11.849Z,54.58
2022-11-06T08:40:13.955Z,78.25
2022-11-06T08:43:16.405Z,61.47
2022-11-06T08:46:18.669Z,186.68
2022-11-06T08:49:20.726Z,115.13
2022-11-06T08:52:22.742Z,85.38
2022-11-06T08:55:25.205Z,99.55
2022-11-06T08:58:27.276Z,46.40
2022-11-06T09:01:29.514Z,35.78
2022-11-06T09:04:31.885Z,76.82
2022-11-06T09:07:33.972Z,57.03
2022-11-06T09:10:36.961Z,60.63
2022-11-06T09:13:39.156Z,55.65
2022-11-06T09:16:41.196Z,84.18
2022-11-06T09:19:43.396Z,99.70
2022-11-06T09:22:46.156Z,93.57
2022-11-06T09:25:48.217Z,49.90
2022-11-06T09:28:50.285Z,46.25
2022-11-06T09:31:54.005Z,46.53
2022-11-06T09:34:56.040Z,70.40
2022-11-06T09:38:05.781Z,96.75
2022-11-06T09:41:19.351Z,35.30
2022-11-06T09:44:36.318Z,91.90
2022-11-06T09:47:41.947Z,23.50
2022-11-06T09:51:15.427Z,53.53
2022-11-06T09:54:43.565Z,39.28
2022-11-06T09:57:57.207Z,49.88
2022-11-06T10:01:00.368Z,86.05
2022-11-06T10:04:02.849Z,78.18
2022-11-06T10:07:04.891Z,85.53
2022-11-06T10:10:17.752Z,74.40
2022-11-06T10:13:29.876Z,64.50
2022-11-06T10:17:15.664Z,73.13
2022-11-06T10:20:30.896Z,42.15
2022-11-06T10:23:45.509Z,94.07
2022-11-06T10:26:54.982Z,133.55
2022-11-06T10:30:13.758Z,101.28
2022-11-06T10:34:06.670Z,77.60
2022-11-06T10:37:31.676Z,77.32
2022-11-06T10:40:35.439Z,35.45
2022-11-06T10:43:52.672Z,45.53
2022-11-06T10:47:18.987Z,57.00
2022-11-06T10:50:21.096Z,45.40
2022-11-06T10:53:49.340Z,42.05
2022-11-06T10:57:21.316Z,60.65
2022-11-06T11:00:23.371Z,32.10
2022-11-06T11:03:44.557Z,41.08
2022-11-06T11:06:46.604Z,56.13
2022-11-06T11:09:50.708Z,45.97
2022-11-06T11:13:05.325Z,142.10
2022-11-06T11:16:35.109Z,39.75
2022-11-06T11:19:44.254Z,68.50
2022-11-06T11:22:46.516Z,76.80
2022-11-06T11:26:17.432Z,43.97
2022-11-06T11:29:44.787Z,81.38
2022-11-06T11:32:46.821Z,61.45
2022-11-06T11:35:49.500Z,65.72
2022-11-06T11:38:51.644Z,110.40
2022-11-06T11:41:53.773Z,53.92
2022-11-06T11:45:14.679Z,55.50
2022-11-06T11:48:17.278Z,83.53
2022-11-06T11:51:22.818Z,110.90
2022-11-06T11:54:26.869Z,120.75
2022-11-06T11:57:28.925Z,84.90
2022-11-06T12:00:30.989Z,45.28
2022-11-06T12:03:38.108Z,114.65
2022-11-06T12:07:10.925Z,50.42
2022-11-06T12:10:40.756Z,55.00
2022-11-06T12:13:42.860Z,118.15
2022-11-06T12:16:46.684Z,194.05
2022-11-06T12:19:53.836Z,106.30
2022-11-06T12:22:56.906Z,113.43
2022-11-06T12:26:39.278Z,174.25
2022-11-06T12:30:15.640Z,91.75
2022-11-06T12:33:20.576Z,101.78
2022-11-06T12:36:22.585Z,111.47
2022-11-06T12:39:25.011Z,73.47
2022-11-06T12:42:30.250Z,132.93
2022-11-06T12:46:11.529Z,124.30
2022-11-06T12:50:01.325Z,88.60
2022-11-06T12:56:43.408Z,33.92
2022-11-06T13:00:11.540Z,42.05
2022-11-06T13:03:50.333Z,32.55
2022-11-06T13:07:11.093Z,23.65
2022-11-06T13:10:33.013Z,34.78
2022-11-06T13:13:59.880Z,27.58
2022-11-06T13:17:06.951Z,27.58
2022-11-06T13:20:29.402Z,33.50
2022-11-06T13:23:44.336Z,42.47
2022-11-06T13:26:50.943Z,37.55
2022-11-06T13:29:52.995Z,27.40
2022-11-06T13:33:25.536Z,30.17
2022-11-06T13:36:27.642Z,36.67
2022-11-06T13:39:52.202Z,25.83
2022-11-06T13:43:05.684Z,28.63
2022-11-06T13:46:41.738Z,27.08
2022-11-06T13:50:06.493Z,21.98
2022-11-06T13:53:27.959Z,24.25
2022-11-06T13:56:44.104Z,18.73
2022-11-06T14:00:16.956Z,18.90
2022-11-06T14:04:29.042Z,22.55
2022-11-06T14:07:31.125Z,19.30
2022-11-06T14:10:37.192Z,19.15
2022-11-06T14:13:39.322Z,25.70
2022-11-06T14:16:43.282Z,22.35
2022-11-06T14:19:51.448Z,26.10
2022-11-06T14:22:53.604Z,27.85
2022-11-06T14:26:08.798Z,24.67
2022-11-06T14:29:29.027Z,45.75
2022-11-06T14:32:30.922Z,37.55
2022-11-06T14:35:35.860Z,32.15
2022-11-06T14:38:38.203Z,28.42
2022-11-06T14:41:40.341Z,31.63
2022-11-06T14:44:43.984Z,33.38
2022-11-06T14:47:54.338Z,30.02
2022-11-06T14:50:56.748Z,28.92
2022-11-06T14:54:18.333Z,19.33
2022-11-06T14:57:47.989Z,23.85
2022-11-06T15:01:00.059Z,26.63
2022-11-06T15:04:06.939Z,21.67
2022-11-06T15:07:44.690Z,26.00
2022-11-06T15:10:48.184Z,42.73
2022-11-06T15:13:50.222Z,67.55
2022-11-06T15:17:14.417Z,26.85
2022-11-06T15:20:22.478Z,22.10
2022-11-06T15:23:50.047Z,23.88
2022-11-06T15:26:54.594Z,23.05
2022-11-06T15:29:58.947Z,20.83
2022-11-06T15:33:02.190Z,21.90
2022-11-06T15:36:06.935Z,17.63
2022-11-06T15:39:38.412Z,21.88
2022-11-06T15:42:40.456Z,25.98
2022-11-06T15:45:42.514Z,20.70
2022-11-06T15:48:45.209Z,23.25
2022-11-06T15:51:58.634Z,21.85
2022-11-06T15:55:00.670Z,26.65
2022-11-06T15:58:30.435Z,30.27
2022-11-06T16:01:33.969Z,22.88
2022-11-06T16:04:36.116Z,32.20
2022-11-06T16:07:38.160Z,30.23
2022-11-06T16:10:40.259Z,33.70
2022-11-06T16:13:42.349Z,57.33
2022-11-06T16:16:49.309Z,23.88
2022-11-06T16:19:51.454Z,36.67
2022-11-06T16:22:54.178Z,28.67
2022-11-06T16:26:02.245Z,38.88
2022-11-06T16:29:20.970Z,34.55
2022-11-06T16:32:26.168Z,41.92
2022-11-06T16:35:35.736Z,57.60
2022-11-06T16:38:44.028Z,57.42
2022-11-06T16:45:16.936Z,41.78
2022-11-06T16:48:35.584Z,102.50
2022-11-06T16:51:37.623Z,91.97
2022-11-06T16:54:39.706Z,94.85
2022-11-06T16:57:52.873Z,40.90
2022-11-06T17:01:05.931Z,52.67
2022-11-06T17:04:19.842Z,32.00
2022-11-06T17:07:22.080Z,29.20
2022-11-06T17:10:43.048Z,26.38
2022-11-06T17:13:45.151Z,74.75
2022-11-06T17:16:52.728Z,61.75
2022-11-06T17:19:54.792Z,47.17
2022-11-06T17:22:56.841Z,120.80
2022-11-06T17:26:21.568Z,107.38
2022-11-06T17:29:23.605Z,73.40
2022-11-06T17:32:25.630Z,66.07
2022-11-06T17:35:27.707Z,164.80
2022-11-06T17:38:32.531Z,142.43
2022-11-06T17:41:34.633Z,72.97
2022-11-06T17:44:36.717Z,72.43
2022-11-06T17:47:38.809Z,109.35
2022-11-06T17:50:59.709Z,90.47
2022-11-06T17:54:01.835Z,81.85
2022-11-06T17:57:05.996Z,126.90
2022-11-06T18:00:10.035Z,91.88
2022-11-06T18:03:19.958Z,68.63
2022-11-06T18:06:22.130Z,76.70
2022-11-06T18:09:24.373Z,76.65
2022-11-06T18:12:27.611Z,57.60
2022-11-06T18:15:29.806Z,55.97
2022-11-06T18:18:31.976Z,72.93
2022-11-06T18:21:34.257Z,35.83
2022-11-06T18:24:40.005Z,29.30
2022-11-06T18:27:42.118Z,30.90
2022-11-06T18:30:44.164Z,25.80
2022-11-06T18:33:46.542Z,28.10
2022-11-06T18:36:50.389Z,27.38
2022-11-06T18:39:52.889Z,19.48
2022-11-06T18:42:55.052Z,18.55
2022-11-06T18:45:57.093Z,5.60
2022-11-06T18:48:59.265Z,4.72
2022-11-06T18:52:01.350Z,5.35
2022-11-06T18:55:03.493Z,3.38
2022-11-06T18:58:05.589Z,3.72
2022-11-06T19:01:13.799Z,3.65
2022-11-06T19:04:22.109Z,4.03
2022-11-06T19:07:24.189Z,4.38
2022-11-06T19:10:28.645Z,4.85
2022-11-06T19:13:30.858Z,5.05
2022-11-06T19:16:32.974Z,5.40
2022-11-06T19:19:35.016Z,6.40
2022-11-06T19:22:37.341Z,5.78
2022-11-06T19:25:42.309Z,6.28
2022-11-06T19:28:44.921Z,7.15
2022-11-06T19:31:46.962Z,7.75
2022-11-06T19:34:49.116Z,6.88
2022-11-06T19:37:52.078Z,7.22
2022-11-06T19:41:00.251Z,5.95
2022-11-06T19:44:02.289Z,4.70
2022-11-06T19:47:04.546Z,4.95
2022-11-06T19:50:06.969Z,5.57
2022-11-06T19:53:09.183Z,5.22
2022-11-06T19:56:16.710Z,5.25
2022-11-06T19:59:18.860Z,4.50
2022-11-06T20:02:21.117Z,6.55
2022-11-06T20:05:23.396Z,5.60
2022-11-06T20:08:25.426Z,6.28
2022-11-06T20:11:27.463Z,10.07
2022-11-06T20:14:29.597Z,7.68
2022-11-06T20:17:31.683Z,4.53
2022-11-06T20:20:36.427Z,6.75
2022-11-06T20:23:39.026Z,5.40
2022-11-06T20:26:41.061Z,3.60
2022-11-06T20:29:43.177Z,5.43
2022-11-06T20:32:45.254Z,5.45
2022-11-06T20:35:47.386Z,5.07
2022-11-06T20:38:50.830Z,5.90
2022-11-06T20:41:53.139Z,5.47
2022-11-06T20:44:55.226Z,4.57
2022-11-06T20:47:57.298Z,4.53
2022-11-06T20:51:04.812Z,4.35
2022-11-06T20:54:06.930Z,5.68
2022-11-06T20:57:09.040Z,4.70
2022-11-06T21:00:12.416Z,7.28
2022-11-06T21:03:14.737Z,5.50
2022-11-06T21:06:17.907Z,6.20
2022-11-06T21:09:22.936Z,6.50
2022-11-06T21:12:24.993Z,8.75
2022-11-06T21:15:27.078Z,6.00
2022-11-06T21:18:29.238Z,5.20
2022-11-06T21:21:33.232Z,4.70
2022-11-06T21:24:35.360Z,8.23
2022-11-06T21:27:37.380Z,5.40
2022-11-06T21:30:46.446Z,5.95
2022-11-06T21:33:50.099Z,5.20
2022-11-06T21:36:52.433Z,5.47
2022-11-06T21:39:54.515Z,5.28
2022-11-06T21:42:56.734Z,6.05
2022-11-06T21:46:05.284Z,3.47
2022-11-06T21:49:07.379Z,6.70
2022-11-06T21:52:29.410Z,5.18
2022-11-06T21:55:53.823Z,7.78
2022-11-06T21:58:58.526Z,6.50
2022-11-06T22:02:00.709Z,6.50
2022-11-06T22:05:03.215Z,5.30
2022-11-06T22:08:06.053Z,4.57
2022-11-06T22:11:18.884Z,4.72
2022-11-06T22:14:20.977Z,6.28
2022-11-06T22:17:23.021Z,6.75
2022-11-06T22:20:25.153Z,4.72
2022-11-06T22:23:27.257Z,6.47
2022-11-06T22:26:35.025Z,7.43
2022-11-06T22:32:39.341Z,4.43
2022-11-06T22:35:41.413Z,8.15
2022-11-06T22:38:44.405Z,7.25
2022-11-06T22:41:46.503Z,5.07
2022-11-06T22:44:48.733Z,6.07
2022-11-06T22:47:50.975Z,6.75
2022-11-06T22:50:53.075Z,7.97
2022-11-06T22:53:55.379Z,24.17
2022-11-06T22:56:57.458Z,33.15
2022-11-06T22:59:59.496Z,12.00
2022-11-06T23:03:01.837Z,24.50
2022-11-06T23:06:08.927Z,10.50
2022-11-06T23:09:11.229Z,8.70
2022-11-06T23:12:13.835Z,12.25
2022-11-06T23:15:15.995Z,9.02
2022-11-06T23:18:18.108Z,7.57
2022-11-06T23:21:20.334Z,6.75
2022-11-06T23:24:22.423Z,6.28
2022-11-06T23:27:25.777Z,6.93
2022-11-06T23:30:30.093Z,6.70
2022-11-06T23:33:32.190Z,7.07
2022-11-06T23:36:35.529Z,4.78
2022-11-06T23:39:37.730Z,3.47
2022-11-06T23:42:40.002Z,5.15
2022-11-06T23:45:51.740Z,2.65
2022-11-06T23:48:53.833Z,3.45
2022-11-06T23:51:55.933Z,3.70
2022-11-06T23:54:58.007Z,5.90
2022-11-06T23:58:00.142Z,4.10
